createdAt,value
2019-01-11T09:05:51.949Z,1.00
2019-01-11T09:13:17.801Z,1.00
2019-01-11T09:15:46.692Z,1.00
2019-01-11T09:18:17.221Z,1.00
2019-01-11T09:20:47.548Z,1.00
2019-01-11T09:23:16.437Z,1.00
2019-01-11T09:25:45.329Z,1.00
2019-01-11T09:28:14.218Z,1.00
2019-01-11T09:30:43.109Z,1.00
2019-01-11T09:45:35.009Z,1.00
2019-01-11T09:50:32.393Z,1.00
2019-01-11T09:53:01.384Z,1.00
2019-01-11T09:55:30.276Z,99.90
2019-01-11T09:57:59.165Z,42.40
2019-01-11T10:00:28.864Z,41.90
2019-01-11T10:03:01.862Z,43.40
2019-01-11T10:05:30.855Z,43.60
2019-01-11T10:07:59.746Z,1.00
2019-01-11T10:10:28.637Z,1.00
2019-01-11T11:00:17.942Z,1.00
2019-01-11T11:02:46.811Z,1.00
2019-01-11T11:05:16.418Z,1.00
2019-01-11T11:07:45.308Z,1.00
2019-01-11T11:10:15.530Z,1.00
2019-01-11T11:12:44.524Z,1.00
2019-01-11T11:15:16.747Z,1.00
2019-01-11T11:17:45.685Z,1.00
2019-01-11T11:20:17.763Z,1.00
2019-01-11T11:22:46.743Z,1.00
2019-01-11T11:25:35.093Z,1.00
2019-01-11T11:28:03.919Z,1.00
2019-01-11T11:30:34.170Z,1.00
2019-01-11T11:33:03.400Z,1.00
2019-01-11T11:35:33.821Z,1.00
2019-01-11T11:38:02.721Z,1.00
2019-01-11T11:40:31.712Z,1.00
2019-01-11T11:43:00.604Z,28.80
2019-01-11T11:45:29.492Z,59.00
2019-01-11T11:47:58.383Z,48.20
2019-01-11T11:50:27.378Z,81.10
2019-01-11T11:52:56.269Z,83.90
2019-01-11T11:55:25.158Z,81.00
2019-01-11T11:57:54.050Z,84.10
2019-01-11T12:00:24.636Z,78.60
2019-01-11T12:02:53.571Z,99.90
2019-01-11T12:05:23.172Z,92.60
2019-01-11T12:07:52.068Z,96.60
2019-01-11T12:12:49.543Z,81.00
